Time;durP1;ratioP1;P1;durP2;ratioP2;P2;SDS_P1;SDS_P2;PMS_P1;PMS_P2;Temp;Humidity;BMP_temperature;BMP_pressure;BME280_temperature;BME280_humidity;BME280_pressure;Samples;Min_cycle;Max_cycle;Signal;HPM_P1;HPM_P2
2022/08/22 00:02:07;;;;;;;2.17;0.70;;;;;;;22.56;58.47;97804.34;5012470;28;20041;-59
2022/08/22 00:04:42;;;;;;;1.52;0.55;;;;;;;22.81;59.21;97853.44;5006035;28;20125;-59
2022/08/22 00:07:27;;;;;;;2.72;0.70;;;;;;;22.76;58.84;97856.00;5010996;28;20176;-58
2022/08/22 00:10:13;;;;;;;2.08;0.60;;;;;;;22.47;58.29;97811.09;5011276;28;20030;-57
2022/08/22 00:13:00;;;;;;;3.17;0.70;;;;;;;22.62;58.14;97853.69;5005261;28;20037;-60
2022/08/22 00:15:37;;;;;;;1.83;0.50;;;;;;;22.51;58.56;97841.34;5014986;28;20075;-58
2022/08/22 00:18:17;;;;;;;1.83;0.60;;;;;;;22.29;58.96;97806.81;5031040;28;20037;-60
2022/08/22 00:20:52;;;;;;;3.45;0.65;;;;;;;22.52;58.98;97852.72;4999482;28;20045;-57
2022/08/22 00:23:29;;;;;;;2.35;0.63;;;;;;;22.32;59.97;97814.25;5032429;28;20117;-58
2022/08/22 00:26:00;;;;;;;2.47;0.80;;;;;;;22.61;60.00;97860.03;5011597;28;20865;-57
2022/08/22 00:29:00;;;;;;;2.33;0.80;;;;;;;22.62;59.17;97856.34;5014770;28;20397;-58
2022/08/22 00:31:32;;;;;;;2.10;0.60;;;;;;;22.56;59.22;97854.66;4991654;28;20099;-62
2022/08/22 00:34:22;;;;;;;1.63;0.60;;;;;;;22.59;59.70;97851.53;5014376;28;20572;-59
2022/08/22 00:36:53;;;;;;;1.75;0.60;;;;;;;22.50;59.38;97863.56;5024221;28;20084;-60
2022/08/22 00:39:33;;;;;;;1.92;0.55;;;;;;;22.44;60.37;97856.59;5011280;28;20022;-58
2022/08/22 00:42:32;;;;;;;3.47;0.70;;;;;;;22.51;60.14;97867.03;5007812;28;20033;-58
2022/08/22 00:45:10;;;;;;;;;;;;;;;22.41;60.72;97860.50;5030055;28;20026;-57
2022/08/22 00:47:54;;;;;;;2.08;0.63;;;;;;;22.44;60.50;97865.31;5015235;28;19924;-59
2022/08/22 00:50:33;;;;;;;1.63;0.60;;;;;;;22.40;59.96;97872.16;5018757;28;20032;-57
2022/08/22 00:53:21;;;;;;;1.97;0.60;;;;;;;22.43;58.16;97861.09;5015299;28;20108;-57
2022/08/22 00:56:24;;;;;;;1.70;0.50;;;;;;;22.43;59.05;97842.53;5018762;28;20287;-59
2022/08/22 00:59:10;;;;;;;2.15;0.60;;;;;;;22.48;58.93;97862.22;5012136;28;20048;-60
2022/08/22 01:01:51;;;;;;;2.75;0.70;;;;;;;22.50;58.76;97871.50;5015561;28;20030;-59
2022/08/22 01:04:38;;;;;;;1.65;0.55;;;;;;;22.25;58.53;97869.19;5011420;28;20041;-58
2022/08/22 01:07:30;;;;;;;1.83;0.60;;;;;;;22.15;60.26;97863.72;5019593;28;20132;-56
2022/08/22 01:10:27;;;;;;;2.25;0.70;;;;;;;21.98;61.39;97835.38;5017953;28;20037;-61
2022/08/22 01:13:04;;;;;;;2.28;0.60;;;;;;;22.10;62.20;97855.69;5018219;28;20464;-57
2022/08/22 01:15:32;;;;;;;2.70;0.65;;;;;;;22.12;61.48;97857.06;5017734;28;20897;-60
2022/08/22 01:18:17;;;;;;;1.60;0.60;;;;;;;22.25;60.73;97859.44;5019032;28;20488;-58
2022/08/22 01:21:01;;;;;;;1.55;0.60;;;;;;;22.48;58.75;97867.50;5021826;28;20144;-58
2022/08/22 01:23:52;;;;;;;2.65;0.70;;;;;;;22.43;59.05;97869.03;5012444;28;20032;-58
2022/08/22 01:26:36;;;;;;;3.25;0.80;;;;;;;22.49;59.01;97863.78;5019556;28;20041;-58
2022/08/22 01:29:20;;;;;;;2.83;0.70;;;;;;;;;;5019595;28;20024;-59
2022/08/22 01:32:04;;;;;;;1.58;0.50;;;;;;;22.41;59.25;97867.66;5018593;28;20709;-60
2022/08/22 01:34:47;;;;;;;1.83;0.60;;;;;;;22.45;58.78;97869.59;5020508;28;20018;-59
2022/08/22 01:37:31;;;;;;;2.10;0.63;;;;;;;22.26;58.45;97844.38;5018157;28;20037;-58
2022/08/22 01:40:19;;;;;;;1.73;0.60;;;;;;;21.96;59.50;97797.78;5019706;28;20416;-58
2022/08/22 01:43:07;;;;;;;2.10;0.65;;;;;;;22.45;59.58;97866.13;5017012;28;20067;-59
2022/08/22 01:45:39;;;;;;;1.77;0.60;;;;;;;22.50;58.66;97868.84;5000244;28;20496;-59
2022/08/22 01:48:18;;;;;;;2.38;0.70;;;;;;;22.35;59.08;97872.06;5021720;28;20048;-57
2022/08/22 01:50:53;;;;;;;2.08;0.60;;;;;;;22.24;59.18;97860.44;5020718;28;20836;-57
2022/08/22 01:53:39;;;;;;;1.65;0.50;;;;;;;22.38;58.93;97871.59;5019133;28;20103;-58
2022/08/22 01:56:24;;;;;;;1.75;0.60;;;;;;;22.29;60.34;97869.53;5016348;28;20364;-57
2022/08/22 01:58:54;;;;;;;1.88;0.70;;;;;;;22.08;60.73;97830.25;5019633;28;20716;-58
2022/08/22 02:01:44;;;;;;;2.55;0.70;;;;;;;22.15;60.53;97838.06;5013519;28;20041;-61
2022/08/22 02:04:15;;;;;;;2.05;0.70;;;;;;;22.29;59.72;97870.38;5017074;28;20030;-59
2022/08/22 02:06:48;;;;;;;1.48;0.50;;;;;;;22.19;60.53;97872.81;5004565;28;20033;-60
2022/08/22 02:09:29;;;;;;;1.80;0.60;;;;;;;22.12;61.22;97869.50;5020936;28;20021;-59
2022/08/22 02:11:59;;;;;;;1.92;0.60;;;;;;;22.15;60.96;97869.81;5021346;28;20021;-59
2022/08/22 02:14:32;;;;;;;1.70;0.63;;;;;;;22.18;61.85;97866.72;4995594;28;20049;-58
2022/08/22 02:17:12;;;;;;;1.50;0.63;;;;;;;22.11;60.29;97866.06;5020221;28;20489;-61
2022/08/22 02:19:46;;;;;;;1.67;0.68;;;;;;;22.09;60.62;97870.78;5021612;28;20033;-62
2022/08/22 02:22:21;;;;;;;1.92;0.60;;;;;;;22.03;60.75;97875.19;5021864;28;20033;-59
2022/08/22 02:25:10;;;;;;;1.65;0.50;;;;;;;22.12;60.51;97866.84;5022581;28;20481;-58
2022/08/22 02:27:49;;;;;;;1.60;0.52;;;;;;;22.25;60.74;97856.78;5018201;28;20056;-58
2022/08/22 02:30:20;;;;;;;1.23;0.52;;;;;;;21.97;59.16;97823.19;5020818;28;20492;-59
2022/08/22 02:32:57;;;;;;;1.13;0.50;;;;;;;22.31;56.17;97860.34;5018962;28;20479;-60
2022/08/22 02:35:50;;;;;;;1.95;0.70;;;;;;;22.26;58.19;97849.66;5019574;28;20044;-59
2022/08/22 02:38:32;;;;;;;1.98;0.70;;;;;;;22.23;59.20;97860.69;4998352;28;20040;-59
2022/08/22 02:41:14;;;;;;;1.38;0.52;;;;;;;22.17;59.63;97857.16;5017323;28;20029;-59
2022/08/22 02:44:00;;;;;;;1.80;0.65;;;;;;;22.18;61.06;97860.63;5003247;28;20152;-59
2022/08/22 02:46:31;;;;;;;3.30;0.80;;;;;;;21.94;61.09;97822.84;5016712;28;20392;-59
2022/08/22 02:49:15;;;;;;;1.85;0.60;;;;;;;22.12;61.22;97864.19;5019843;28;20025;-60
2022/08/22 02:51:50;;;;;;;2.47;0.80;;;;;;;22.22;59.05;97857.25;5016690;28;20034;-60
2022/08/22 02:54:36;;;;;;;1.95;0.70;;;;;;;22.16;55.01;97854.72;5028987;28;20052;-58
2022/08/22 02:57:07;;;;;;;1.67;0.50;;;;;;;21.93;55.11;97808.81;5021159;28;20116;-60
2022/08/22 02:59:36;;;;;;;2.88;0.60;;;;;;;22.24;55.12;97849.84;5027572;28;20139;-58
2022/08/22 03:02:26;;;;;;;2.35;0.70;;;;;;;22.20;54.82;97846.09;5019652;28;20075;-59
2022/08/22 03:04:55;;;;;;;1.65;0.50;;;;;;;22.19;54.55;97848.97;5023139;28;20021;-58
2022/08/22 03:07:20;;;;;;;2.85;0.90;;;;;;;22.00;55.34;97816.63;5026949;28;20486;-59
2022/08/22 03:10:09;;;;;;;2.15;0.70;;;;;;;22.17;54.53;97841.25;5020861;28;20105;-59
2022/08/22 03:12:56;;;;;;;2.10;0.75;;;;;;;22.09;57.35;97831.06;5018080;28;20017;-58
2022/08/22 03:15:47;;;;;;;4.25;0.95;;;;;;;22.24;58.14;97854.34;5008778;28;20028;-59
2022/08/22 03:18:31;;;;;;;2.92;0.70;;;;;;;22.26;58.16;97853.09;5018189;28;20481;-61
2022/08/22 03:21:20;;;;;;;1.30;0.60;;;;;;;22.32;57.73;97853.97;5015960;28;20051;-57
2022/08/22 03:23:52;;;;;;;2.20;0.70;;;;;;;22.24;57.66;97841.91;5019600;28;20049;-60
2022/08/22 03:26:25;;;;;;;3.47;0.80;;;;;;;22.15;58.13;97847.84;5021175;28;20094;-55
2022/08/22 03:28:52;;;;;;;2.25;0.80;;;;;;;22.10;58.66;97850.41;5003449;28;20026;-61
2022/08/22 03:31:21;;;;;;;3.70;0.80;;;;;;;21.98;58.54;97851.25;5018426;28;20033;-59
2022/08/22 03:34:12;;;;;;;4.05;0.70;;;;;;;22.01;59.00;97852.63;5021773;28;20025;-58
2022/08/22 03:36:38;;;;;;;2.38;0.60;;;;;;;21.80;59.06;97819.69;5010269;28;20136;-57
2022/08/22 03:39:18;;;;;;;3.95;0.80;;;;;;;21.77;58.86;97809.59;5020746;28;20064;-57
2022/08/22 03:42:01;;;;;;;4.07;0.90;;;;;;;21.93;58.88;97858.31;5018560;28;20033;-56
2022/08/22 03:44:44;;;;;;;2.47;0.95;;;;;;;21.89;58.80;97856.13;5026368;28;20040;-59
2022/08/22 03:47:21;;;;;;;4.90;0.93;;;;;;;21.85;58.04;97848.91;5020318;28;20250;-58
2022/08/22 03:49:56;;;;;;;2.67;0.80;;;;;;;21.87;57.94;97855.56;5019454;28;20029;-55
2022/08/22 03:53:06;;;;;;;2.22;0.68;;;;;;;21.86;58.24;97843.34;5001760;28;20033;-57
2022/08/22 03:55:29;;;;;;;3.40;0.70;;;;;;;21.82;59.11;97852.81;5017638;28;20123;-58
2022/08/22 03:58:28;;;;;;;2.13;0.70;;;;;;;21.61;57.80;97811.97;5019084;28;20656;-57
2022/08/22 04:01:32;;;;;;;2.97;0.70;;;;;;;21.79;58.00;97845.34;5015234;28;20600;-57
2022/08/22 04:04:06;;;;;;;2.80;0.80;;;;;;;21.76;58.71;97845.00;5015151;28;20050;-59
2022/08/22 04:06:51;;;;;;;3.38;0.90;;;;;;;21.40;59.36;97808.06;5018847;28;20128;-59
2022/08/22 04:09:30;;;;;;;1.83;0.70;;;;;;;21.66;58.93;97856.19;5016029;28;20121;-57
2022/08/22 04:12:14;;;;;;;2.85;0.93;;;;;;;21.61;58.66;97864.84;5013887;28;20029;-57
2022/08/22 04:15:10;;;;;;;2.83;0.95;;;;;;;21.57;58.90;97862.91;5017973;28;20405;-58
2022/08/22 04:17:55;;;;;;;3.40;0.80;;;;;;;21.61;59.26;97864.03;5017956;28;20087;-57
2022/08/22 04:20:49;;;;;;;2.60;0.90;;;;;;;21.53;59.27;97865.22;5000326;28;20141;-59
2022/08/22 04:23:26;;;;;;;3.30;0.85;;;;;;;21.30;59.21;97829.00;5017605;28;20037;-58
2022/08/22 04:26:10;;;;;;;3.28;0.70;;;;;;;21.27;58.97;97825.00;5020433;28;20040;-59
2022/08/22 04:28:40;;;;;;;3.97;0.90;;;;;;;21.23;58.43;97820.38;5019513;28;20676;-57
2022/08/22 04:31:11;;;;;;;3.28;0.70;;;;;;;21.44;57.82;97861.28;5001212;28;20392;-58
2022/08/22 04:33:58;;;;;;;2.97;0.80;;;;;;;21.48;58.17;97852.69;5035669;28;20025;-56
2022/08/22 04:36:42;;;;;;;5.18;0.85;;;;;;;21.54;58.04;97864.19;5015191;28;20025;-57
2022/08/22 04:39:34;;;;;;;3.03;0.80;;;;;;;21.36;59.17;97859.00;5013510;28;20030;-58
2022/08/22 04:42:22;;;;;;;2.40;0.80;;;;;;;21.31;59.39;97862.34;5022185;28;20036;-57
2022/08/22 04:45:01;;;;;;;4.13;1.05;;;;;;;21.05;60.18;97827.44;5005395;28;20060;-58
2022/08/22 04:47:38;;;;;;;3.22;0.93;;;;;;;21.27;59.91;97869.94;5003350;28;20030;-61
2022/08/22 04:50:20;;;;;;;3.28;0.70;;;;;;;21.23;59.39;97865.31;5006208;28;20052;-58
2022/08/22 04:53:13;;;;;;;2.75;0.90;;;;;;;21.27;58.15;97871.78;5015974;28;20029;-59
2022/08/22 04:56:09;;;;;;;3.30;1.30;;;;;;;21.33;57.41;97867.41;5006526;28;20064;-57
2022/08/22 04:58:54;;;;;;;3.20;1.10;;;;;;;21.15;57.69;97839.25;5020397;28;20029;-57
2022/08/22 05:01:25;;;;;;;4.15;0.98;;;;;;;21.36;58.30;97874.88;5007522;28;20033;-58
2022/08/22 05:04:01;;;;;;;2.72;0.90;;;;;;;21.13;58.21;97847.41;5020576;28;20025;-57
2022/08/22 05:06:29;;;;;;;2.53;0.80;;;;;;;21.29;59.11;97875.78;4999121;28;20033;-57
2022/08/22 05:08:59;;;;;;;2.65;0.80;;;;;;;20.85;60.18;97835.72;5006028;28;20036;-57
2022/08/22 05:11:25;;;;;;;2.80;0.80;;;;;;;21.16;59.81;97877.88;5020151;28;20659;-57
2022/08/22 05:13:56;;;;;;;3.13;1.00;;;;;;;21.12;59.94;97883.63;5006248;28;20037;-58
2022/08/22 05:16:31;;;;;;;4.47;0.90;;;;;;;21.16;59.48;97881.31;5019757;28;20061;-59
2022/08/22 05:19:05;;;;;;;3.80;0.95;;;;;;;21.18;60.83;97887.19;5022788;28;20678;-57
2022/08/22 05:21:34;;;;;;;3.70;1.00;;;;;;;21.17;60.32;97879.47;5020942;28;20068;-61
2022/08/22 05:24:04;;;;;;;;;;;;;;;21.14;60.61;97893.97;5011575;28;20208;-59
2022/08/22 05:26:38;;;;;;;4.05;1.20;;;;;;;21.13;60.59;97895.00;5001169;28;19920;-59
2022/08/22 05:29:09;;;;;;;5.40;1.13;;;;;;;21.03;61.16;97884.22;5013566;28;20116;-59
2022/08/22 05:31:49;;;;;;;3.22;1.00;;;;;;;21.02;61.04;97896.59;5012248;28;20036;-57
2022/08/22 05:34:19;;;;;;;2.38;0.90;;;;;;;21.04;61.57;97897.16;5000113;28;20025;-59
2022/08/22 05:36:51;;;;;;;4.10;1.00;;;;;;;20.94;62.37;97894.31;5021874;28;20029;-60
2022/08/22 05:39:23;;;;;;;4.55;1.10;;;;;;;20.95;61.96;97897.75;5019772;28;20037;-60
2022/08/22 05:41:50;;;;;;;2.97;0.88;;;;;;;20.79;61.62;97870.16;5024202;28;20128;-61
2022/08/22 05:44:17;;;;;;;3.67;1.10;;;;;;;21.07;62.40;97906.50;5019462;28;20041;-60
2022/08/22 05:46:45;;;;;;;3.55;0.80;;;;;;;21.05;62.57;97898.00;4964115;28;20087;-60
2022/08/22 05:49:22;;;;;;;5.35;1.05;;;;;;;20.97;60.87;97901.75;5044800;28;20384;-59
2022/08/22 05:52:19;;;;;;;2.00;0.77;;;;;;;21.06;61.16;97902.22;5014691;28;20025;-60
2022/08/22 05:55:00;;;;;;;3.42;0.98;;;;;;;21.15;61.64;97900.84;5015992;28;20489;-58
2022/08/22 05:57:28;;;;;;;2.35;0.98;;;;;;;21.19;61.79;97903.84;5020506;28;20508;-57
2022/08/22 06:00:03;;;;;;;2.80;0.80;;;;;;;21.12;61.04;97901.34;5019591;28;20055;-62
2022/08/22 06:02:43;;;;;;;2.30;0.80;;;;;;;21.11;61.08;97894.41;5019704;28;20392;-58
2022/08/22 06:05:09;;;;;;;;;;;;;;;21.12;61.45;97903.97;5018071;28;20036;-59
2022/08/22 06:07:46;;;;;;;3.42;0.70;;;;;;;21.15;62.49;97898.22;5016641;28;20377;-58
2022/08/22 06:10:27;;;;;;;3.35;0.80;;;;;;;21.10;62.11;97885.69;5021403;28;20585;-58
2022/08/22 06:13:18;;;;;;;4.10;0.90;;;;;;;21.25;61.90;97903.72;5013743;28;20133;-57
2022/08/22 06:15:50;;;;;;;2.10;0.70;;;;;;;21.03;61.57;97894.78;5005466;28;20570;-61
2022/08/22 06:18:20;;;;;;;4.50;0.90;;;;;;;21.12;62.84;97904.78;5021467;28;20072;-58
2022/08/22 06:20:53;;;;;;;2.05;0.75;;;;;;;21.14;61.22;97901.91;5020701;28;20037;-59
2022/08/22 06:23:28;;;;;;;1.90;0.70;;;;;;;21.04;61.09;97902.47;5021969;28;20037;-60
2022/08/22 06:25:57;;;;;;;2.55;0.73;;;;;;;21.04;60.54;97899.81;5015883;28;20025;-58
2022/08/22 06:28:26;;;;;;;4.10;0.65;;;;;;;20.87;60.06;97870.63;4998013;28;20030;-58
2022/08/22 06:30:54;;;;;;;2.45;0.80;;;;;;;20.90;60.39;97883.41;5019973;28;20021;-57
2022/08/22 06:33:23;;;;;;;5.45;0.88;;;;;;;21.10;60.83;97901.56;5020125;28;20025;-60
2022/08/22 06:39:09;;;;;;;2.38;0.70;;;;;;;21.08;60.28;97910.72;5035474;28;20183;-57
2022/08/22 06:41:54;;;;;;;2.30;0.70;;;;;;;20.88;60.00;97880.19;5022573;28;20033;-59
2022/08/22 06:44:24;;;;;;;2.25;0.70;;;;;;;21.05;60.38;97903.28;5031788;28;20013;-59
2022/08/22 06:46:53;;;;;;;2.60;0.90;;;;;;;21.26;60.02;97917.75;4994294;28;20586;-59
2022/08/22 06:49:21;;;;;;;2.42;0.80;;;;;;;21.24;60.10;97917.19;5015785;28;20032;-59
2022/08/22 06:51:47;;;;;;;2.20;0.80;;;;;;;21.20;58.26;97916.03;5018043;28;20489;-58
2022/08/22 06:54:23;;;;;;;1.75;0.60;;;;;;;21.20;58.15;97916.03;5004290;28;20033;-58
2022/08/22 06:56:50;;;;;;;1.88;0.70;;;;;;;21.29;56.41;97915.44;5001636;28;20689;-60
2022/08/22 06:59:24;;;;;;;2.00;0.70;;;;;;;21.12;56.19;97886.28;5019088;28;20033;-58
2022/08/22 07:02:15;;;;;;;2.45;0.70;;;;;;;21.34;56.28;97920.06;5005325;28;20029;-58
2022/08/22 07:04:40;;;;;;;4.60;0.85;;;;;;;21.13;55.81;97884.41;5019426;28;20068;-63
2022/08/22 07:07:06;;;;;;;3.70;0.70;;;;;;;21.05;55.79;97882.94;5019031;28;20065;-57
2022/08/22 07:09:34;;;;;;;2.15;0.70;;;;;;;21.12;56.37;97888.91;5013126;28;20107;-59
2022/08/22 07:12:15;;;;;;;2.28;0.77;;;;;;;21.34;53.93;97920.06;5019136;28;20037;-58
2022/08/22 07:14:42;;;;;;;1.90;0.70;;;;;;;21.38;54.76;97918.56;5019681;28;20514;-58
2022/08/22 07:17:15;;;;;;;2.03;0.60;;;;;;;21.24;54.48;97882.81;5017205;28;20030;-60
2022/08/22 07:19:47;;;;;;;3.22;0.90;;;;;;;21.43;56.49;97908.09;5002423;28;20038;-59
2022/08/22 07:22:23;;;;;;;1.92;0.60;;;;;;;21.43;56.64;97910.72;5013422;28;20556;-59
2022/08/22 07:24:53;;;;;;;2.10;0.75;;;;;;;21.50;53.21;97913.25;5019639;28;20021;-58
2022/08/22 07:27:21;;;;;;;;;;;;;;;21.48;54.74;97918.81;5003964;28;20140;-60
2022/08/22 07:30:11;;;;;;;3.20;0.80;;;;;;;21.45;54.72;97919.28;5019870;28;19956;-58
2022/08/22 07:32:56;;;;;;;2.60;0.70;;;;;;;21.49;53.75;97923.06;4993696;28;20045;-57
2022/08/22 07:35:29;;;;;;;2.95;0.95;;;;;;;21.40;53.61;97927.06;5017480;28;20433;-58
2022/08/22 07:38:27;;;;;;;2.67;0.80;;;;;;;21.40;54.80;97936.84;5018122;28;20053;-59
2022/08/22 07:41:12;;;;;;;2.13;0.80;;;;;;;21.48;52.66;97923.28;5017379;28;20059;-59
2022/08/22 07:43:51;;;;;;;2.00;0.77;;;;;;;21.47;52.80;97933.06;5016789;28;20033;-57
2022/08/22 07:46:33;;;;;;;2.05;0.68;;;;;;;21.01;54.40;97849.25;5014845;28;20029;-58
2022/08/22 07:49:08;;;;;;;2.20;0.80;;;;;;;21.31;55.43;97907.28;5020047;28;20477;-59
2022/08/22 07:51:35;;;;;;;3.70;0.85;;;;;;;21.44;55.65;97922.91;5021704;28;20053;-60
2022/08/22 07:54:05;;;;;;;3.10;0.80;;;;;;;21.40;56.83;97921.75;5020686;28;20043;-60
2022/08/22 07:56:35;;;;;;;2.17;0.70;;;;;;;21.38;57.37;97923.03;5020243;28;21079;-58
2022/08/22 07:59:06;;;;;;;4.28;0.98;;;;;;;21.50;55.24;97922.03;5019270;28;20072;-58
2022/08/22 08:01:32;;;;;;;3.92;0.90;;;;;;;21.40;55.83;97911.19;5019756;28;20064;-58
2022/08/22 08:04:02;;;;;;;3.83;0.90;;;;;;;21.26;56.63;97873.59;5021234;28;20061;-58
2022/08/22 08:06:28;;;;;;;4.85;1.00;;;;;;;21.50;57.11;97910.63;4995149;28;20018;-58
2022/08/22 08:08:54;;;;;;;3.92;0.95;;;;;;;21.49;56.77;97917.75;5015553;28;20036;-58
2022/08/22 08:11:22;;;;;;;2.78;0.80;;;;;;;21.48;56.84;97912.69;5016902;28;20556;-59
2022/08/22 08:13:52;;;;;;;2.42;0.85;;;;;;;21.41;57.09;97904.06;5019324;28;20121;-58
2022/08/22 08:16:20;;;;;;;4.13;1.10;;;;;;;21.22;54.43;97877.75;5017661;28;20377;-57
2022/08/22 08:18:48;;;;;;;3.35;1.00;;;;;;;21.50;53.32;97921.19;5000757;28;20033;-60
2022/08/22 08:21:25;;;;;;;4.10;1.20;;;;;;;21.20;53.83;97879.81;5017127;28;20116;-58
2022/08/22 08:23:52;;;;;;;4.65;1.10;;;;;;;21.58;55.38;97909.47;5007796;28;20477;-60
2022/08/22 08:26:23;;;;;;;4.45;1.25;;;;;;;22.53;51.83;97902.81;5019353;28;20120;-58
2022/08/22 08:28:54;;;;;;;3.88;1.13;;;;;;;24.37;44.31;97907.16;5000176;28;20067;-59
2022/08/22 08:31:30;;;;;;;3.38;1.00;;;;;;;25.74;40.70;97906.78;4999600;28;20040;-58
2022/08/22 08:34:09;;;;;;;2.63;0.88;;;;;;;26.98;37.31;97909.44;5010122;28;20032;-58
2022/08/22 08:36:38;;;;;;;4.37;1.30;;;;;;;28.08;35.31;97906.19;5015613;28;20022;-58
2022/08/22 08:39:14;;;;;;;;;;;;;;;28.74;34.23;97908.41;5019692;28;20048;-58
2022/08/22 08:41:55;;;;;;;3.15;0.90;;;;;;;29.55;32.88;97905.22;5002269;28;20460;-58
2022/08/22 08:44:59;;;;;;;3.58;1.00;;;;;;;30.23;30.94;97903.31;5018036;28;20136;-58
2022/08/22 08:47:37;;;;;;;3.10;0.95;;;;;;;30.51;30.38;97868.59;5020004;28;20100;-59
2022/08/22 08:50:08;;;;;;;4.03;0.90;;;;;;;30.69;29.31;97891.91;4997318;28;20041;-58
2022/08/22 08:53:18;;;;;;;1.88;0.70;;;;;;;30.39;29.07;97872.53;5016771;28;20167;-58
2022/08/22 08:56:03;;;;;;;2.25;0.70;;;;;;;30.51;29.38;97887.38;4957772;28;20118;-58
2022/08/22 08:58:37;;;;;;;2.67;0.73;;;;;;;29.67;30.14;97853.94;4958894;28;20066;-59
2022/08/22 09:01:15;;;;;;;2.80;0.90;;;;;;;29.38;31.04;97846.00;4988973;28;20065;-59
2022/08/22 09:03:55;;;;;;;2.15;0.70;;;;;;;27.63;32.81;97881.25;5016328;28;20696;-58
2022/08/22 09:06:30;;;;;;;1.55;0.60;;;;;;;26.99;34.41;97887.00;5016461;28;20129;-58
2022/08/22 09:09:17;;;;;;;2.20;0.80;;;;;;;26.59;35.83;97877.13;5008369;28;20030;-60
2022/08/22 09:12:07;;;;;;;1.65;0.60;;;;;;;25.95;38.14;97873.88;5017038;28;20033;-57
2022/08/22 09:14:57;;;;;;;2.53;0.70;;;;;;;25.57;41.07;97864.38;5049743;28;20492;-57
2022/08/22 09:17:37;;;;;;;1.20;0.60;;;;;;;25.30;43.51;97855.50;5016795;28;20026;-58
2022/08/22 09:20:03;;;;;;;2.63;0.73;;;;;;;25.24;43.08;97858.38;5016499;28;20026;-58
2022/08/22 09:22:58;;;;;;;3.20;0.70;;;;;;;25.16;43.24;97849.00;5016612;28;20582;-58
2022/08/22 09:25:51;;;;;;;2.05;0.73;;;;;;;25.17;39.98;97852.47;5016180;28;20559;-57
2022/08/22 09:28:37;;;;;;;2.65;0.80;;;;;;;25.13;39.14;97842.38;5017611;28;20049;-57
2022/08/22 09:31:27;;;;;;;2.22;0.80;;;;;;;25.23;38.06;97841.59;5019115;28;20033;-57
2022/08/22 09:34:26;;;;;;;2.28;0.65;;;;;;;25.30;39.67;97839.53;5023710;28;20056;-57
2022/08/22 09:37:18;;;;;;;1.38;0.60;;;;;;;25.41;38.19;97842.22;5017396;28;20083;-57
2022/08/22 09:40:04;;;;;;;2.17;0.80;;;;;;;25.56;37.12;97833.53;5022508;28;20112;-58
2022/08/22 09:43:00;;;;;;;2.22;0.63;;;;;;;25.22;35.82;97778.03;5020638;28;20034;-57
2022/08/22 09:45:44;;;;;;;1.83;0.60;;;;;;;25.66;35.64;97838.88;5022885;28;20033;-59
2022/08/22 09:48:30;;;;;;;2.17;0.80;;;;;;;25.78;34.91;97839.44;4998159;28;20068;-56
2022/08/22 09:51:21;;;;;;;2.88;0.80;;;;;;;25.78;35.28;97804.84;5000078;28;20522;-57
2022/08/22 09:53:59;;;;;;;2.90;0.82;;;;;;;26.05;37.08;97833.16;5023416;28;20026;-57
2022/08/22 09:56:52;;;;;;;1.58;0.60;;;;;;;26.02;34.72;97831.81;5013382;28;20029;-58
2022/08/22 09:59:25;;;;;;;3.38;0.80;;;;;;;25.92;38.53;97825.63;5014757;28;20124;-58
2022/08/22 10:02:10;;;;;;;2.83;0.80;;;;;;;25.89;36.59;97824.28;5014072;28;20057;-59
2022/08/22 10:04:46;;;;;;;3.00;0.90;;;;;;;26.06;34.71;97829.41;5020619;28;20033;-57
2022/08/22 10:07:30;;;;;;;1.95;0.70;;;;;;;26.13;34.43;97816.63;5015967;28;20083;-58
2022/08/22 10:10:05;;;;;;;2.05;0.60;;;;;;;26.19;38.29;97809.44;5049051;28;20363;-56
2022/08/22 10:13:18;;;;;;;2.58;0.80;;;;;;;26.24;36.56;97806.78;5002464;28;20453;-55
2022/08/22 10:15:53;;;;;;;3.00;0.77;;;;;;;26.30;35.78;97804.91;5018717;28;20045;-56
2022/08/22 10:18:35;;;;;;;1.88;0.70;;;;;;;26.24;34.59;97796.91;5024626;28;20116;-56
2022/08/22 10:21:20;;;;;;;2.15;0.80;;;;;;;26.22;32.25;97799.06;5020992;28;20075;-57
2022/08/22 10:23:53;;;;;;;1.75;0.60;;;;;;;26.46;32.36;97782.53;5024807;28;20044;-57
2022/08/22 10:26:25;;;;;;;1.92;0.70;;;;;;;26.62;34.54;97794.00;5014355;28;20116;-57
2022/08/22 10:28:54;;;;;;;5.05;0.93;;;;;;;26.83;34.91;97781.41;5027049;28;20066;-57
2022/08/22 10:31:22;;;;;;;;;;;;;;;26.87;35.08;97779.00;5021027;28;20017;-58
2022/08/22 10:34:08;;;;;;;1.98;0.70;;;;;;;26.88;36.75;97773.41;5021805;28;19996;-56
2022/08/22 10:36:51;;;;;;;2.42;0.68;;;;;;;26.90;31.46;97763.25;5022570;28;20089;-56
2022/08/22 10:39:24;;;;;;;1.98;0.80;;;;;;;26.91;32.50;97756.09;5023571;28;20033;-56
2022/08/22 10:42:11;;;;;;;2.28;0.70;;;;;;;27.21;27.06;97766.63;5018416;28;20731;-58
2022/08/22 10:45:03;;;;;;;2.75;0.80;;;;;;;27.34;27.64;97770.59;5008455;28;20029;-57
2022/08/22 10:47:42;;;;;;;1.88;0.60;;;;;;;27.39;28.04;97757.22;4999021;28;20050;-58
2022/08/22 10:50:15;;;;;;;2.00;0.60;;;;;;;27.37;28.09;97751.38;5007964;28;20048;-60
2022/08/22 10:53:28;;;;;;;1.98;0.73;;;;;;;27.50;33.42;97765.19;5001675;28;20116;-58
2022/08/22 10:55:44;;;;;;;2.10;0.70;;;;;;;27.55;28.50;97746.47;5017264;28;20041;-58
2022/08/22 10:58:13;;;;;;;1.92;0.70;;;;;;;27.57;28.57;97747.00;4995662;28;20128;-57
2022/08/22 11:00:52;;;;;;;3.35;0.70;;;;;;;27.77;27.24;97746.06;4994048;28;20030;-58
2022/08/22 11:03:20;;;;;;;;;;;;;;;27.71;26.27;97742.63;5033206;28;20040;-56
2022/08/22 11:05:47;;;;;;;2.03;0.70;;;;;;;27.61;27.14;97706.09;5023097;28;19986;-58
2022/08/22 11:08:25;;;;;;;2.78;0.77;;;;;;;27.74;26.31;97738.59;5000979;28;20029;-58
2022/08/22 11:11:08;;;;;;;2.08;0.70;;;;;;;27.95;26.45;97741.97;5013113;28;20040;-57
2022/08/22 11:13:38;;;;;;;2.35;0.90;;;;;;;28.11;26.52;97739.94;5019318;28;20415;-57
2022/08/22 11:16:04;;;;;;;3.60;0.70;;;;;;;28.14;25.48;97739.41;5024250;28;20032;-57
2022/08/22 11:18:44;;;;;;;2.08;0.70;;;;;;;27.98;25.71;97728.03;5009233;28;20949;-58
2022/08/22 11:21:38;;;;;;;2.38;0.77;;;;;;;27.96;26.96;97741.66;5010886;28;20037;-57
2022/08/22 11:24:33;;;;;;;2.72;0.88;;;;;;;28.04;25.02;97739.47;4988867;28;20046;-60
2022/08/22 11:27:09;;;;;;;3.83;0.70;;;;;;;28.11;26.06;97745.28;5010116;28;20135;-56
2022/08/22 11:29:57;;;;;;;3.05;0.65;;;;;;;28.23;25.53;97744.94;4986886;28;20183;-57
2022/08/22 11:33:04;;;;;;;2.83;0.80;;;;;;;28.31;25.02;97734.44;4991586;28;20021;-57
2022/08/22 11:35:38;;;;;;;2.65;0.82;;;;;;;28.38;26.01;97739.44;5014255;28;20038;-58
2022/08/22 11:38:38;;;;;;;2.35;0.80;;;;;;;28.45;25.05;97733.78;5023818;28;20045;-55
2022/08/22 11:41:22;;;;;;;2.03;0.70;;;;;;;28.50;25.10;97737.19;4970862;28;20037;-57
2022/08/22 11:44:05;;;;;;;3.42;0.70;;;;;;;28.56;23.20;97725.38;5024581;28;20103;-56
2022/08/22 11:46:43;;;;;;;2.03;0.70;;;;;;;28.43;25.11;97722.56;5014981;28;20774;-57
2022/08/22 11:49:28;;;;;;;2.83;0.70;;;;;;;28.36;24.73;97690.81;4992293;28;20037;-57
2022/08/22 11:51:56;;;;;;;4.70;1.10;;;;;;;28.62;24.46;97722.66;5018136;28;20476;-56
2022/08/22 11:54:46;;;;;;;2.80;0.93;;;;;;;28.59;24.34;97721.38;5015441;28;20103;-57
2022/08/22 11:57:16;;;;;;;2.45;0.82;;;;;;;28.68;24.82;97718.88;5015020;28;20037;-58
2022/08/22 11:59:41;;;;;;;2.95;0.90;;;;;;;28.71;24.28;97708.41;5016142;28;20397;-58
2022/08/22 12:02:15;;;;;;;1.95;0.70;;;;;;;28.71;24.64;97707.59;5023912;28;20064;-58
2022/08/22 12:04:45;;;;;;;2.35;0.70;;;;;;;28.81;25.80;97704.81;5019169;28;20026;-56
2022/08/22 12:07:30;;;;;;;1.98;0.60;;;;;;;28.66;24.64;97708.44;5019321;28;20037;-56
2022/08/22 12:10:11;;;;;;;2.60;0.68;;;;;;;28.75;25.20;97705.94;5013935;28;20124;-58
2022/08/22 12:12:51;;;;;;;2.65;0.70;;;;;;;28.73;28.98;97698.22;5018942;28;20033;-57
2022/08/22 12:15:24;;;;;;;1.83;0.70;;;;;;;28.64;28.76;97667.00;5016348;28;20033;-57
2022/08/22 12:18:18;;;;;;;2.28;0.65;;;;;;;28.98;26.14;97695.50;5004533;28;20068;-56
2022/08/22 12:20:49;;;;;;;2.25;0.77;;;;;;;28.97;23.46;97691.22;5013628;28;20041;-57
2022/08/22 12:23:43;;;;;;;2.47;0.70;;;;;;;28.87;23.47;97681.47;5005986;28;20025;-57
2022/08/22 12:26:18;;;;;;;1.92;0.60;;;;;;;28.83;23.12;97659.84;5025546;28;20025;-57
2022/08/22 12:29:10;;;;;;;1.90;0.70;;;;;;;29.10;23.02;97683.28;5003161;28;20064;-56
2022/08/22 12:31:55;;;;;;;3.08;0.80;;;;;;;28.95;24.08;97681.63;5015890;28;20168;-57
2022/08/22 12:34:33;;;;;;;1.98;0.60;;;;;;;28.97;25.12;97669.81;5011682;28;20382;-57
2022/08/22 12:37:14;;;;;;;2.40;0.65;;;;;;;28.86;24.33;97675.31;5014640;28;20057;-57